sensor_id;sensor_type;location;lat;lon;timestamp;P1;durP1;ratioP1;P2;durP2;ratioP2
74196;SDS011;62555;52.678;4.900;2023-05-19T00:00:55;1.90;;;1.20;;
74196;SDS011;62555;52.678;4.900;2023-05-19T00:03:21;1.85;;;1.08;;
74196;SDS011;62555;52.678;4.900;2023-05-19T00:05:47;2.33;;;1.30;;
74196;SDS011;62555;52.678;4.900;2023-05-19T00:08:14;3.47;;;1.20;;
74196;SDS011;62555;52.678;4.900;2023-05-19T00:10:40;1.33;;;1.20;;
74196;SDS011;62555;52.678;4.900;2023-05-19T00:13:05;1.50;;;1.02;;
74196;SDS011;62555;52.678;4.900;2023-05-19T00:15:31;2.50;;;1.40;;
74196;SDS011;62555;52.678;4.900;2023-05-19T00:17:56;2.70;;;1.20;;
74196;SDS011;62555;52.678;4.900;2023-05-19T00:20:21;0.90;;;0.90;;
74196;SDS011;62555;52.678;4.900;2023-05-19T00:22:47;1.40;;;1.30;;
74196;SDS011;62555;52.678;4.900;2023-05-19T00:25:12;2.10;;;1.53;;
74196;SDS011;62555;52.678;4.900;2023-05-19T00:27:37;1.83;;;1.00;;
74196;SDS011;62555;52.678;4.900;2023-05-19T00:30:02;1.40;;;0.90;;
74196;SDS011;62555;52.678;4.900;2023-05-19T00:32:28;2.30;;;1.00;;
74196;SDS011;62555;52.678;4.900;2023-05-19T00:34:53;1.00;;;0.90;;
74196;SDS011;62555;52.678;4.900;2023-05-19T00:37:18;1.30;;;1.20;;
74196;SDS011;62555;52.678;4.900;2023-05-19T00:39:44;1.58;;;1.05;;
74196;SDS011;62555;52.678;4.900;2023-05-19T00:42:09;1.20;;;0.87;;
74196;SDS011;62555;52.678;4.900;2023-05-19T00:44:36;1.90;;;1.57;;
74196;SDS011;62555;52.678;4.900;2023-05-19T00:47:03;1.30;;;1.05;;
74196;SDS011;62555;52.678;4.900;2023-05-19T00:49:29;1.52;;;1.08;;
74196;SDS011;62555;52.678;4.900;2023-05-19T00:51:54;1.83;;;1.20;;
74196;SDS011;62555;52.678;4.900;2023-05-19T00:54:19;1.53;;;1.43;;
74196;SDS011;62555;52.678;4.900;2023-05-19T00:56:45;2.03;;;1.00;;
74196;SDS011;62555;52.678;4.900;2023-05-19T00:59:10;1.83;;;1.10;;
74196;SDS011;62555;52.678;4.900;2023-05-19T01:01:35;2.37;;;1.17;;
74196;SDS011;62555;52.678;4.900;2023-05-19T01:04:00;2.17;;;1.10;;
74196;SDS011;62555;52.678;4.900;2023-05-19T01:06:27;1.30;;;1.20;;
74196;SDS011;62555;52.678;4.900;2023-05-19T01:08:53;1.40;;;1.30;;
74196;SDS011;62555;52.678;4.900;2023-05-19T01:11:19;1.48;;;1.10;;
74196;SDS011;62555;52.678;4.900;2023-05-19T01:13:45;1.95;;;1.25;;
74196;SDS011;62555;52.678;4.900;2023-05-19T01:18:38;1.30;;;1.20;;
74196;SDS011;62555;52.678;4.900;2023-05-19T01:23:53;1.55;;;1.10;;
74196;SDS011;62555;52.678;4.900;2023-05-19T01:26:30;1.70;;;0.88;;
74196;SDS011;62555;52.678;4.900;2023-05-19T01:31:44;2.53;;;1.30;;
74196;SDS011;62555;52.678;4.900;2023-05-19T01:34:11;1.20;;;1.10;;
74196;SDS011;62555;52.678;4.900;2023-05-19T01:36:37;3.20;;;1.20;;
74196;SDS011;62555;52.678;4.900;2023-05-19T01:39:02;3.22;;;1.48;;
74196;SDS011;62555;52.678;4.900;2023-05-19T01:41:27;2.28;;;1.10;;
74196;SDS011;62555;52.678;4.900;2023-05-19T01:43:53;1.35;;;1.15;;
74196;SDS011;62555;52.678;4.900;2023-05-19T01:46:18;1.77;;;1.20;;
74196;SDS011;62555;52.678;4.900;2023-05-19T01:48:45;1.30;;;1.20;;
74196;SDS011;62555;52.678;4.900;2023-05-19T01:51:11;2.25;;;1.48;;
74196;SDS011;62555;52.678;4.900;2023-05-19T01:53:36;1.63;;;1.20;;
74196;SDS011;62555;52.678;4.900;2023-05-19T01:56:01;2.20;;;1.07;;
74196;SDS011;62555;52.678;4.900;2023-05-19T02:00:53;1.92;;;1.48;;
74196;SDS011;62555;52.678;4.900;2023-05-19T02:06:02;1.35;;;1.23;;
74196;SDS011;62555;52.678;4.900;2023-05-19T02:08:33;2.92;;;1.27;;
74196;SDS011;62555;52.678;4.900;2023-05-19T02:11:04;1.83;;;1.17;;
74196;SDS011;62555;52.678;4.900;2023-05-19T02:13:32;3.13;;;1.20;;
74196;SDS011;62555;52.678;4.900;2023-05-19T02:16:01;1.75;;;1.20;;
74196;SDS011;62555;52.678;4.900;2023-05-19T02:18:28;2.85;;;1.73;;
74196;SDS011;62555;52.678;4.900;2023-05-19T02:20:56;2.22;;;1.30;;
74196;SDS011;62555;52.678;4.900;2023-05-19T02:23:21;1.63;;;1.23;;
74196;SDS011;62555;52.678;4.900;2023-05-19T02:25:46;1.57;;;1.00;;
74196;SDS011;62555;52.678;4.900;2023-05-19T02:28:11;2.00;;;1.20;;
74196;SDS011;62555;52.678;4.900;2023-05-19T02:30:36;3.03;;;1.30;;
74196;SDS011;62555;52.678;4.900;2023-05-19T02:33:02;1.45;;;1.08;;
74196;SDS011;62555;52.678;4.900;2023-05-19T02:35:30;1.92;;;1.20;;
74196;SDS011;62555;52.678;4.900;2023-05-19T02:37:55;1.63;;;1.10;;
74196;SDS011;62555;52.678;4.900;2023-05-19T02:40:21;2.15;;;1.10;;
74196;SDS011;62555;52.678;4.900;2023-05-19T02:42:46;1.92;;;1.13;;
74196;SDS011;62555;52.678;4.900;2023-05-19T02:45:11;2.10;;;1.70;;
74196;SDS011;62555;52.678;4.900;2023-05-19T02:47:36;1.77;;;1.03;;
74196;SDS011;62555;52.678;4.900;2023-05-19T02:50:02;2.80;;;1.42;;
74196;SDS011;62555;52.678;4.900;2023-05-19T02:52:27;2.15;;;1.30;;
74196;SDS011;62555;52.678;4.900;2023-05-19T02:54:52;1.33;;;1.17;;
74196;SDS011;62555;52.678;4.900;2023-05-19T02:57:17;1.57;;;1.10;;
74196;SDS011;62555;52.678;4.900;2023-05-19T02:59:43;2.63;;;1.63;;
74196;SDS011;62555;52.678;4.900;2023-05-19T03:02:08;2.10;;;1.25;;
74196;SDS011;62555;52.678;4.900;2023-05-19T03:04:33;1.17;;;1.07;;
74196;SDS011;62555;52.678;4.900;2023-05-19T03:07:05;2.00;;;1.73;;
74196;SDS011;62555;52.678;4.900;2023-05-19T03:09:30;2.13;;;1.10;;
74196;SDS011;62555;52.678;4.900;2023-05-19T03:11:55;2.17;;;0.93;;
74196;SDS011;62555;52.678;4.900;2023-05-19T03:14:20;1.80;;;1.10;;
74196;SDS011;62555;52.678;4.900;2023-05-19T03:16:47;1.45;;;1.05;;
74196;SDS011;62555;52.678;4.900;2023-05-19T03:19:13;2.05;;;1.48;;
74196;SDS011;62555;52.678;4.900;2023-05-19T03:21:38;1.83;;;1.53;;
74196;SDS011;62555;52.678;4.900;2023-05-19T03:24:03;1.50;;;1.13;;
74196;SDS011;62555;52.678;4.900;2023-05-19T03:26:29;1.77;;;1.13;;
74196;SDS011;62555;52.678;4.900;2023-05-19T03:28:54;1.87;;;1.40;;
74196;SDS011;62555;52.678;4.900;2023-05-19T03:31:19;2.60;;;1.17;;
74196;SDS011;62555;52.678;4.900;2023-05-19T03:33:44;1.50;;;1.10;;
74196;SDS011;62555;52.678;4.900;2023-05-19T03:36:10;1.50;;;1.40;;
74196;SDS011;62555;52.678;4.900;2023-05-19T03:38:36;2.10;;;1.13;;
74196;SDS011;62555;52.678;4.900;2023-05-19T03:41:01;1.80;;;1.10;;
74196;SDS011;62555;52.678;4.900;2023-05-19T03:43:27;1.63;;;1.15;;
74196;SDS011;62555;52.678;4.900;2023-05-19T03:45:52;1.10;;;1.00;;
74196;SDS011;62555;52.678;4.900;2023-05-19T03:48:17;2.03;;;1.10;;
74196;SDS011;62555;52.678;4.900;2023-05-19T03:50:42;2.53;;;1.17;;
74196;SDS011;62555;52.678;4.900;2023-05-19T03:53:08;1.67;;;1.00;;
74196;SDS011;62555;52.678;4.900;2023-05-19T03:55:33;2.00;;;1.17;;
74196;SDS011;62555;52.678;4.900;2023-05-19T03:58:01;1.65;;;1.15;;
74196;SDS011;62555;52.678;4.900;2023-05-19T04:00:26;1.20;;;1.05;;
74196;SDS011;62555;52.678;4.900;2023-05-19T04:02:51;1.30;;;1.00;;
74196;SDS011;62555;52.678;4.900;2023-05-19T04:05:16;2.33;;;1.80;;
74196;SDS011;62555;52.678;4.900;2023-05-19T04:07:42;2.20;;;1.00;;
74196;SDS011;62555;52.678;4.900;2023-05-19T04:10:07;1.87;;;1.20;;
74196;SDS011;62555;52.678;4.900;2023-05-19T04:12:32;2.30;;;1.00;;
74196;SDS011;62555;52.678;4.900;2023-05-19T04:14:58;1.40;;;1.10;;
74196;SDS011;62555;52.678;4.900;2023-05-19T04:17:23;2.00;;;1.25;;
74196;SDS011;62555;52.678;4.900;2023-05-19T04:19:50;1.10;;;0.90;;
74196;SDS011;62555;52.678;4.900;2023-05-19T04:22:15;2.00;;;1.50;;
74196;SDS011;62555;52.678;4.900;2023-05-19T04:24:40;2.47;;;1.30;;
74196;SDS011;62555;52.678;4.900;2023-05-19T04:27:05;2.20;;;1.47;;
74196;SDS011;62555;52.678;4.900;2023-05-19T04:29:35;1.60;;;1.48;;
74196;SDS011;62555;52.678;4.900;2023-05-19T04:32:01;2.42;;;0.85;;
74196;SDS011;62555;52.678;4.900;2023-05-19T04:34:30;1.83;;;1.10;;
74196;SDS011;62555;52.678;4.900;2023-05-19T04:36:55;2.03;;;1.30;;
74196;SDS011;62555;52.678;4.900;2023-05-19T04:39:21;1.48;;;1.05;;
74196;SDS011;62555;52.678;4.900;2023-05-19T04:41:46;1.30;;;1.00;;
74196;SDS011;62555;52.678;4.900;2023-05-19T04:44:12;1.40;;;0.98;;
74196;SDS011;62555;52.678;4.900;2023-05-19T04:46:37;2.17;;;1.00;;
74196;SDS011;62555;52.678;4.900;2023-05-19T04:49:02;2.88;;;1.67;;
74196;SDS011;62555;52.678;4.900;2023-05-19T04:51:28;1.50;;;0.80;;
74196;SDS011;62555;52.678;4.900;2023-05-19T04:53:55;1.67;;;1.00;;
74196;SDS011;62555;52.678;4.900;2023-05-19T04:56:20;1.20;;;1.10;;
74196;SDS011;62555;52.678;4.900;2023-05-19T04:58:46;1.70;;;1.17;;
74196;SDS011;62555;52.678;4.900;2023-05-19T05:01:11;1.13;;;0.97;;
74196;SDS011;62555;52.678;4.900;2023-05-19T05:03:37;2.72;;;1.38;;
74196;SDS011;62555;52.678;4.900;2023-05-19T05:06:03;1.90;;;0.97;;
74196;SDS011;62555;52.678;4.900;2023-05-19T05:08:28;1.98;;;1.08;;
74196;SDS011;62555;52.678;4.900;2023-05-19T05:10:54;1.25;;;1.10;;
74196;SDS011;62555;52.678;4.900;2023-05-19T05:13:20;1.40;;;1.02;;
74196;SDS011;62555;52.678;4.900;2023-05-19T05:15:45;1.73;;;1.10;;
74196;SDS011;62555;52.678;4.900;2023-05-19T05:18:11;1.00;;;0.90;;
74196;SDS011;62555;52.678;4.900;2023-05-19T05:20:36;1.90;;;1.08;;
74196;SDS011;62555;52.678;4.900;2023-05-19T05:23:01;2.03;;;1.10;;
74196;SDS011;62555;52.678;4.900;2023-05-19T05:25:27;1.45;;;1.05;;
74196;SDS011;62555;52.678;4.900;2023-05-19T05:27:52;1.88;;;1.17;;
74196;SDS011;62555;52.678;4.900;2023-05-19T05:30:17;1.20;;;0.93;;
74196;SDS011;62555;52.678;4.900;2023-05-19T05:32:42;2.27;;;1.10;;
74196;SDS011;62555;52.678;4.900;2023-05-19T05:35:08;1.38;;;1.10;;
74196;SDS011;62555;52.678;4.900;2023-05-19T05:37:33;2.10;;;1.30;;
74196;SDS011;62555;52.678;4.900;2023-05-19T05:39:58;1.17;;;0.90;;
74196;SDS011;62555;52.678;4.900;2023-05-19T05:42:24;1.53;;;1.10;;
74196;SDS011;62555;52.678;4.900;2023-05-19T05:44:49;1.20;;;1.05;;
74196;SDS011;62555;52.678;4.900;2023-05-19T05:47:14;1.30;;;1.20;;
74196;SDS011;62555;52.678;4.900;2023-05-19T05:49:39;1.88;;;1.00;;
74196;SDS011;62555;52.678;4.900;2023-05-19T05:52:06;1.48;;;1.15;;
74196;SDS011;62555;52.678;4.900;2023-05-19T05:54:32;2.13;;;1.63;;
74196;SDS011;62555;52.678;4.900;2023-05-19T05:56:57;2.03;;;1.13;;
74196;SDS011;62555;52.678;4.900;2023-05-19T05:59:23;2.30;;;1.00;;
74196;SDS011;62555;52.678;4.900;2023-05-19T06:01:48;1.57;;;1.07;;
74196;SDS011;62555;52.678;4.900;2023-05-19T06:04:13;1.33;;;1.10;;
74196;SDS011;62555;52.678;4.900;2023-05-19T06:06:38;1.93;;;1.27;;
74196;SDS011;62555;52.678;4.900;2023-05-19T06:09:03;2.20;;;1.00;;
74196;SDS011;62555;52.678;4.900;2023-05-19T06:11:29;1.10;;;1.00;;
74196;SDS011;62555;52.678;4.900;2023-05-19T06:13:54;1.38;;;1.20;;
74196;SDS011;62555;52.678;4.900;2023-05-19T06:16:20;2.40;;;1.20;;
74196;SDS011;62555;52.678;4.900;2023-05-19T06:18:45;1.47;;;1.20;;
74196;SDS011;62555;52.678;4.900;2023-05-19T06:21:10;1.25;;;0.90;;
74196;SDS011;62555;52.678;4.900;2023-05-19T06:23:37;2.75;;;1.48;;
74196;SDS011;62555;52.678;4.900;2023-05-19T06:26:02;1.60;;;1.20;;
74196;SDS011;62555;52.678;4.900;2023-05-19T06:28:28;1.80;;;1.07;;
74196;SDS011;62555;52.678;4.900;2023-05-19T06:30:53;1.20;;;1.10;;
74196;SDS011;62555;52.678;4.900;2023-05-19T06:33:18;1.20;;;1.00;;
74196;SDS011;62555;52.678;4.900;2023-05-19T06:35:43;2.63;;;1.10;;
74196;SDS011;62555;52.678;4.900;2023-05-19T06:38:08;1.40;;;0.93;;
74196;SDS011;62555;52.678;4.900;2023-05-19T06:40:34;1.13;;;1.00;;
74196;SDS011;62555;52.678;4.900;2023-05-19T06:43:00;1.65;;;1.00;;
74196;SDS011;62555;52.678;4.900;2023-05-19T06:45:26;1.93;;;1.23;;
74196;SDS011;62555;52.678;4.900;2023-05-19T06:47:51;1.50;;;1.10;;
74196;SDS011;62555;52.678;4.900;2023-05-19T06:50:16;2.27;;;1.17;;
74196;SDS011;62555;52.678;4.900;2023-05-19T06:52:41;1.50;;;1.33;;
74196;SDS011;62555;52.678;4.900;2023-05-19T06:55:07;1.65;;;1.20;;
74196;SDS011;62555;52.678;4.900;2023-05-19T06:57:33;1.87;;;0.90;;
74196;SDS011;62555;52.678;4.900;2023-05-19T06:59:58;1.80;;;1.47;;
74196;SDS011;62555;52.678;4.900;2023-05-19T07:02:23;1.10;;;1.00;;
74196;SDS011;62555;52.678;4.900;2023-05-19T07:04:48;1.40;;;0.90;;
74196;SDS011;62555;52.678;4.900;2023-05-19T07:07:15;1.40;;;1.00;;
74196;SDS011;62555;52.678;4.900;2023-05-19T07:09:40;2.08;;;1.30;;
74196;SDS011;62555;52.678;4.900;2023-05-19T07:12:05;1.60;;;1.20;;
74196;SDS011;62555;52.678;4.900;2023-05-19T07:14:31;1.67;;;1.10;;
74196;SDS011;62555;52.678;4.900;2023-05-19T07:16:56;1.87;;;1.10;;
74196;SDS011;62555;52.678;4.900;2023-05-19T07:19:21;1.10;;;0.87;;
74196;SDS011;62555;52.678;4.900;2023-05-19T07:21:47;1.38;;;1.10;;
74196;SDS011;62555;52.678;4.900;2023-05-19T07:24:13;2.73;;;1.40;;
74196;SDS011;62555;52.678;4.900;2023-05-19T07:26:38;1.93;;;1.30;;
74196;SDS011;62555;52.678;4.900;2023-05-19T07:29:03;1.95;;;0.90;;
74196;SDS011;62555;52.678;4.900;2023-05-19T07:31:28;1.73;;;0.97;;
74196;SDS011;62555;52.678;4.900;2023-05-19T07:33:54;2.00;;;0.90;;
74196;SDS011;62555;52.678;4.900;2023-05-19T07:36:19;2.00;;;1.20;;
74196;SDS011;62555;52.678;4.900;2023-05-19T07:38:44;1.80;;;1.40;;
74196;SDS011;62555;52.678;4.900;2023-05-19T07:41:10;3.05;;;1.25;;
74196;SDS011;62555;52.678;4.900;2023-05-19T07:43:35;1.63;;;1.33;;
74196;SDS011;62555;52.678;4.900;2023-05-19T07:46:00;3.13;;;1.00;;
74196;SDS011;62555;52.678;4.900;2023-05-19T07:48:26;3.07;;;1.30;;
74196;SDS011;62555;52.678;4.900;2023-05-19T07:50:51;1.37;;;1.00;;
74196;SDS011;62555;52.678;4.900;2023-05-19T07:53:17;1.55;;;1.30;;
74196;SDS011;62555;52.678;4.900;2023-05-19T07:55:42;3.10;;;1.10;;
74196;SDS011;62555;52.678;4.900;2023-05-19T07:58:07;1.63;;;1.07;;
74196;SDS011;62555;52.678;4.900;2023-05-19T08:00:32;1.40;;;1.13;;
74196;SDS011;62555;52.678;4.900;2023-05-19T08:02:58;1.70;;;1.23;;
74196;SDS011;62555;52.678;4.900;2023-05-19T08:05:23;1.48;;;1.02;;
74196;SDS011;62555;52.678;4.900;2023-05-19T08:07:50;1.77;;;1.13;;
74196;SDS011;62555;52.678;4.900;2023-05-19T08:10:15;1.80;;;1.15;;
74196;SDS011;62555;52.678;4.900;2023-05-19T08:12:40;1.40;;;1.17;;
74196;SDS011;62555;52.678;4.900;2023-05-19T08:15:05;1.63;;;1.10;;
74196;SDS011;62555;52.678;4.900;2023-05-19T08:17:31;2.25;;;1.40;;
74196;SDS011;62555;52.678;4.900;2023-05-19T08:19:56;2.07;;;1.30;;
74196;SDS011;62555;52.678;4.900;2023-05-19T08:22:21;2.03;;;1.30;;
74196;SDS011;62555;52.678;4.900;2023-05-19T08:24:46;1.67;;;1.13;;
74196;SDS011;62555;52.678;4.900;2023-05-19T08:27:13;2.10;;;1.10;;
74196;SDS011;62555;52.678;4.900;2023-05-19T08:29:39;1.35;;;1.23;;
74196;SDS011;62555;52.678;4.900;2023-05-19T08:32:04;2.43;;;1.27;;
74196;SDS011;62555;52.678;4.900;2023-05-19T08:34:29;1.50;;;1.25;;
74196;SDS011;62555;52.678;4.900;2023-05-19T08:36:54;2.45;;;1.20;;
74196;SDS011;62555;52.678;4.900;2023-05-19T08:39:21;1.35;;;1.25;;
74196;SDS011;62555;52.678;4.900;2023-05-19T08:41:50;2.60;;;1.10;;
74196;SDS011;62555;52.678;4.900;2023-05-19T08:44:16;1.67;;;1.30;;
74196;SDS011;62555;52.678;4.900;2023-05-19T08:46:41;2.03;;;1.17;;
74196;SDS011;62555;52.678;4.900;2023-05-19T08:49:13;2.17;;;1.37;;
74196;SDS011;62555;52.678;4.900;2023-05-19T08:54:18;1.90;;;1.40;;
74196;SDS011;62555;52.678;4.900;2023-05-19T08:56:44;2.17;;;1.38;;
74196;SDS011;62555;52.678;4.900;2023-05-19T08:59:11;1.48;;;1.20;;
74196;SDS011;62555;52.678;4.900;2023-05-19T09:01:37;1.48;;;1.25;;
74196;SDS011;62555;52.678;4.900;2023-05-19T09:04:03;1.38;;;1.27;;
74196;SDS011;62555;52.678;4.900;2023-05-19T09:06:28;2.57;;;1.40;;
74196;SDS011;62555;52.678;4.900;2023-05-19T09:08:56;1.85;;;1.33;;
74196;SDS011;62555;52.678;4.900;2023-05-19T09:11:21;2.45;;;1.75;;
74196;SDS011;62555;52.678;4.900;2023-05-19T09:13:47;1.73;;;1.43;;
74196;SDS011;62555;52.678;4.900;2023-05-19T09:16:13;1.77;;;1.58;;
74196;SDS011;62555;52.678;4.900;2023-05-19T09:18:38;2.30;;;1.60;;
74196;SDS011;62555;52.678;4.900;2023-05-19T09:21:04;1.40;;;1.30;;
74196;SDS011;62555;52.678;4.900;2023-05-19T09:23:31;2.63;;;1.58;;
74196;SDS011;62555;52.678;4.900;2023-05-19T09:26:00;2.80;;;1.83;;
74196;SDS011;62555;52.678;4.900;2023-05-19T09:28:26;1.95;;;1.60;;
74196;SDS011;62555;52.678;4.900;2023-05-19T09:31:01;2.60;;;1.52;;
74196;SDS011;62555;52.678;4.900;2023-05-19T09:33:27;2.72;;;1.60;;
74196;SDS011;62555;52.678;4.900;2023-05-19T09:35:55;2.15;;;1.60;;
74196;SDS011;62555;52.678;4.900;2023-05-19T09:38:22;3.58;;;2.20;;
74196;SDS011;62555;52.678;4.900;2023-05-19T09:40:47;2.55;;;1.92;;
74196;SDS011;62555;52.678;4.900;2023-05-19T09:43:13;3.65;;;2.20;;
74196;SDS011;62555;52.678;4.900;2023-05-19T09:45:39;2.83;;;1.95;;
74196;SDS011;62555;52.678;4.900;2023-05-19T09:48:04;4.07;;;1.80;;
74196;SDS011;62555;52.678;4.900;2023-05-19T09:50:30;4.22;;;2.08;;
74196;SDS011;62555;52.678;4.900;2023-05-19T09:52:56;2.47;;;1.85;;
74196;SDS011;62555;52.678;4.900;2023-05-19T09:55:22;2.95;;;1.80;;
74196;SDS011;62555;52.678;4.900;2023-05-19T09:57:49;2.05;;;1.73;;
74196;SDS011;62555;52.678;4.900;2023-05-19T10:00:15;3.65;;;2.00;;
74196;SDS011;62555;52.678;4.900;2023-05-19T10:02:42;2.78;;;1.75;;
74196;SDS011;62555;52.678;4.900;2023-05-19T10:05:14;3.58;;;2.05;;
74196;SDS011;62555;52.678;4.900;2023-05-19T10:07:53;2.42;;;1.88;;
74196;SDS011;62555;52.678;4.900;2023-05-19T10:10:19;2.35;;;1.40;;
74196;SDS011;62555;52.678;4.900;2023-05-19T10:12:45;2.90;;;1.70;;
74196;SDS011;62555;52.678;4.900;2023-05-19T10:15:11;2.92;;;1.98;;
74196;SDS011;62555;52.678;4.900;2023-05-19T10:17:37;1.63;;;1.38;;
74196;SDS011;62555;52.678;4.900;2023-05-19T10:20:03;3.88;;;2.17;;
74196;SDS011;62555;52.678;4.900;2023-05-19T10:22:30;2.70;;;1.90;;
74196;SDS011;62555;52.678;4.900;2023-05-19T10:24:56;3.22;;;1.70;;
74196;SDS011;62555;52.678;4.900;2023-05-19T10:27:21;4.07;;;1.70;;
74196;SDS011;62555;52.678;4.900;2023-05-19T10:29:48;2.53;;;1.60;;
74196;SDS011;62555;52.678;4.900;2023-05-19T10:32:15;2.33;;;2.00;;
74196;SDS011;62555;52.678;4.900;2023-05-19T10:35:05;3.47;;;1.67;;
74196;SDS011;62555;52.678;4.900;2023-05-19T10:40:20;2.42;;;1.90;;
74196;SDS011;62555;52.678;4.900;2023-05-19T10:42:55;1.95;;;1.50;;
74196;SDS011;62555;52.678;4.900;2023-05-19T10:45:22;3.38;;;1.60;;
74196;SDS011;62555;52.678;4.900;2023-05-19T10:47:50;3.15;;;1.55;;
74196;SDS011;62555;52.678;4.900;2023-05-19T10:50:16;2.63;;;1.60;;
74196;SDS011;62555;52.678;4.900;2023-05-19T10:52:41;3.17;;;1.38;;
74196;SDS011;62555;52.678;4.900;2023-05-19T10:55:12;2.53;;;1.40;;
74196;SDS011;62555;52.678;4.900;2023-05-19T10:58:02;2.67;;;1.88;;
74196;SDS011;62555;52.678;4.900;2023-05-19T11:00:27;2.08;;;1.45;;
74196;SDS011;62555;52.678;4.900;2023-05-19T11:02:53;1.67;;;1.50;;
74196;SDS011;62555;52.678;4.900;2023-05-19T11:05:26;1.92;;;1.73;;
74196;SDS011;62555;52.678;4.900;2023-05-19T11:07:55;2.53;;;1.98;;
74196;SDS011;62555;52.678;4.900;2023-05-19T11:10:26;2.83;;;1.60;;
74196;SDS011;62555;52.678;4.900;2023-05-19T11:12:51;1.97;;;1.60;;
74196;SDS011;62555;52.678;4.900;2023-05-19T11:15:16;2.53;;;1.70;;
74196;SDS011;62555;52.678;4.900;2023-05-19T11:17:44;2.63;;;1.58;;
74196;SDS011;62555;52.678;4.900;2023-05-19T11:20:19;3.35;;;1.77;;
74196;SDS011;62555;52.678;4.900;2023-05-19T11:22:59;2.60;;;2.05;;
74196;SDS011;62555;52.678;4.900;2023-05-19T11:25:39;2.00;;;1.55;;
74196;SDS011;62555;52.678;4.900;2023-05-19T11:28:05;2.15;;;1.42;;
74196;SDS011;62555;52.678;4.900;2023-05-19T11:30:30;2.83;;;1.73;;
74196;SDS011;62555;52.678;4.900;2023-05-19T11:32:56;2.08;;;1.55;;
74196;SDS011;62555;52.678;4.900;2023-05-19T11:35:21;2.00;;;1.70;;
74196;SDS011;62555;52.678;4.900;2023-05-19T11:37:47;2.38;;;1.67;;
74196;SDS011;62555;52.678;4.900;2023-05-19T11:40:12;2.33;;;1.80;;
74196;SDS011;62555;52.678;4.900;2023-05-19T11:42:39;2.78;;;1.33;;
74196;SDS011;62555;52.678;4.900;2023-05-19T11:45:05;3.85;;;1.38;;
74196;SDS011;62555;52.678;4.900;2023-05-19T11:47:30;3.10;;;1.85;;
74196;SDS011;62555;52.678;4.900;2023-05-19T11:49:58;2.08;;;1.58;;
74196;SDS011;62555;52.678;4.900;2023-05-19T11:52:24;2.43;;;1.80;;
74196;SDS011;62555;52.678;4.900;2023-05-19T11:54:49;3.13;;;1.90;;
74196;SDS011;62555;52.678;4.900;2023-05-19T11:57:14;2.33;;;1.70;;
74196;SDS011;62555;52.678;4.900;2023-05-19T11:59:40;2.67;;;1.80;;
74196;SDS011;62555;52.678;4.900;2023-05-19T12:02:19;2.65;;;1.50;;
74196;SDS011;62555;52.678;4.900;2023-05-19T12:04:45;2.08;;;1.83;;
74196;SDS011;62555;52.678;4.900;2023-05-19T12:07:11;3.47;;;1.90;;
74196;SDS011;62555;52.678;4.900;2023-05-19T12:09:37;1.98;;;1.88;;
74196;SDS011;62555;52.678;4.900;2023-05-19T12:12:02;2.53;;;1.93;;
74196;SDS011;62555;52.678;4.900;2023-05-19T12:14:28;3.13;;;1.73;;
74196;SDS011;62555;52.678;4.900;2023-05-19T12:16:53;2.35;;;1.63;;
74196;SDS011;62555;52.678;4.900;2023-05-19T12:19:21;1.87;;;1.60;;
74196;SDS011;62555;52.678;4.900;2023-05-19T12:21:46;1.92;;;1.33;;
74196;SDS011;62555;52.678;4.900;2023-05-19T12:24:12;4.22;;;1.95;;
74196;SDS011;62555;52.678;4.900;2023-05-19T12:26:37;3.50;;;1.98;;
74196;SDS011;62555;52.678;4.900;2023-05-19T12:29:05;1.60;;;1.50;;
74196;SDS011;62555;52.678;4.900;2023-05-19T12:31:31;3.83;;;2.28;;
74196;SDS011;62555;52.678;4.900;2023-05-19T12:33:57;2.95;;;2.03;;
74196;SDS011;62555;52.678;4.900;2023-05-19T12:36:22;4.27;;;2.13;;
74196;SDS011;62555;52.678;4.900;2023-05-19T12:38:47;3.40;;;1.80;;
74196;SDS011;62555;52.678;4.900;2023-05-19T12:41:17;3.88;;;2.20;;
74196;SDS011;62555;52.678;4.900;2023-05-19T12:43:43;2.60;;;1.85;;
74196;SDS011;62555;52.678;4.900;2023-05-19T12:46:11;2.67;;;1.87;;
74196;SDS011;62555;52.678;4.900;2023-05-19T12:48:40;2.42;;;2.00;;
74196;SDS011;62555;52.678;4.900;2023-05-19T12:51:05;2.90;;;2.15;;
74196;SDS011;62555;52.678;4.900;2023-05-19T12:53:31;3.35;;;2.03;;
74196;SDS011;62555;52.678;4.900;2023-05-19T12:55:56;2.22;;;1.65;;
74196;SDS011;62555;52.678;4.900;2023-05-19T12:58:22;3.27;;;2.43;;
74196;SDS011;62555;52.678;4.900;2023-05-19T13:00:48;2.90;;;1.83;;
74196;SDS011;62555;52.678;4.900;2023-05-19T13:03:15;4.03;;;2.33;;
74196;SDS011;62555;52.678;4.900;2023-05-19T13:05:41;2.17;;;1.85;;
74196;SDS011;62555;52.678;4.900;2023-05-19T13:08:08;2.45;;;2.00;;
74196;SDS011;62555;52.678;4.900;2023-05-19T13:10:35;3.55;;;2.08;;
74196;SDS011;62555;52.678;4.900;2023-05-19T13:13:00;7.35;;;2.85;;
74196;SDS011;62555;52.678;4.900;2023-05-19T13:15:27;4.35;;;1.98;;
74196;SDS011;62555;52.678;4.900;2023-05-19T13:17:53;3.25;;;2.20;;
74196;SDS011;62555;52.678;4.900;2023-05-19T13:20:19;2.90;;;1.80;;
74196;SDS011;62555;52.678;4.900;2023-05-19T13:22:44;3.30;;;2.05;;
74196;SDS011;62555;52.678;4.900;2023-05-19T13:25:09;2.77;;;1.90;;
74196;SDS011;62555;52.678;4.900;2023-05-19T13:27:35;3.58;;;2.13;;
74196;SDS011;62555;52.678;4.900;2023-05-19T13:30:01;3.83;;;2.38;;
74196;SDS011;62555;52.678;4.900;2023-05-19T13:32:26;5.15;;;2.20;;
74196;SDS011;62555;52.678;4.900;2023-05-19T13:34:51;2.63;;;2.20;;
74196;SDS011;62555;52.678;4.900;2023-05-19T13:37:16;3.13;;;2.10;;
74196;SDS011;62555;52.678;4.900;2023-05-19T13:39:41;4.83;;;2.40;;
74196;SDS011;62555;52.678;4.900;2023-05-19T13:42:07;3.73;;;2.53;;
74196;SDS011;62555;52.678;4.900;2023-05-19T13:44:32;3.28;;;2.33;;
74196;SDS011;62555;52.678;4.900;2023-05-19T13:46:57;3.40;;;2.47;;
74196;SDS011;62555;52.678;4.900;2023-05-19T13:49:22;4.57;;;2.70;;
74196;SDS011;62555;52.678;4.900;2023-05-19T13:51:47;2.53;;;1.93;;
74196;SDS011;62555;52.678;4.900;2023-05-19T13:54:13;3.13;;;2.47;;
74196;SDS011;62555;52.678;4.900;2023-05-19T13:56:38;4.07;;;2.27;;
74196;SDS011;62555;52.678;4.900;2023-05-19T13:59:04;2.50;;;2.10;;
74196;SDS011;62555;52.678;4.900;2023-05-19T14:01:29;4.07;;;2.90;;
74196;SDS011;62555;52.678;4.900;2023-05-19T14:03:54;3.63;;;2.40;;
74196;SDS011;62555;52.678;4.900;2023-05-19T14:06:19;2.60;;;2.40;;
74196;SDS011;62555;52.678;4.900;2023-05-19T14:08:44;5.30;;;2.70;;
74196;SDS011;62555;52.678;4.900;2023-05-19T14:11:16;4.03;;;2.10;;
74196;SDS011;62555;52.678;4.900;2023-05-19T14:13:41;3.67;;;2.50;;
74196;SDS011;62555;52.678;4.900;2023-05-19T14:16:06;4.90;;;2.50;;
74196;SDS011;62555;52.678;4.900;2023-05-19T14:18:32;3.83;;;2.67;;
74196;SDS011;62555;52.678;4.900;2023-05-19T14:20:57;4.30;;;2.40;;
74196;SDS011;62555;52.678;4.900;2023-05-19T14:23:22;5.37;;;2.70;;
74196;SDS011;62555;52.678;4.900;2023-05-19T14:25:47;4.27;;;2.30;;
74196;SDS011;62555;52.678;4.900;2023-05-19T14:28:12;2.63;;;2.43;;
74196;SDS011;62555;52.678;4.900;2023-05-19T14:30:38;3.00;;;2.50;;
74196;SDS011;62555;52.678;4.900;2023-05-19T14:33:03;2.90;;;2.50;;
74196;SDS011;62555;52.678;4.900;2023-05-19T14:35:28;3.60;;;2.47;;
74196;SDS011;62555;52.678;4.900;2023-05-19T14:37:53;4.17;;;2.43;;
74196;SDS011;62555;52.678;4.900;2023-05-19T14:40:18;3.93;;;2.30;;
74196;SDS011;62555;52.678;4.900;2023-05-19T14:42:44;4.17;;;2.80;;
74196;SDS011;62555;52.678;4.900;2023-05-19T14:45:09;3.97;;;2.60;;
74196;SDS011;62555;52.678;4.900;2023-05-19T14:47:34;3.35;;;2.72;;
74196;SDS011;62555;52.678;4.900;2023-05-19T14:50:00;5.10;;;2.90;;
74196;SDS011;62555;52.678;4.900;2023-05-19T14:52:25;3.47;;;2.77;;
74196;SDS011;62555;52.678;4.900;2023-05-19T14:54:50;4.53;;;2.63;;
74196;SDS011;62555;52.678;4.900;2023-05-19T14:57:15;4.33;;;3.00;;
74196;SDS011;62555;52.678;4.900;2023-05-19T14:59:40;5.37;;;3.07;;